Le Luc-Le Cannet Airport

Airport
ICAO code: 
LFMC
Summary
ICAO Region: 
EUR
Territory: 
Location: 
, Provence-Alpes-Cote d'Azur
Serving: 
Le Luc
Elevation: 
265 ft
Coordinates: 
Aerial View: 
43° 23' 4.819" N, 6° 23' 13.7" E
Metar
Observation
LFMC 020400Z AUTO 25010KT CAVOK 08/05 Q1001
Station
Le Luc
Date/Time
2021-12-02 04:00:00
Wind direction
250°
Wind speed
10 kts
Lowest cloud amount
clouds and visibility OK
Temperature
8°C
Dew point
5°C
Humidity
81%
QNH
1001 hPa
Weather condition
n/a

Runways

Designator Length Width Surface Rops
9/27 800 30 ASP No/No
13/31 1400 30 ASP No/No
Airport map: 
Aerial View: 

SKYbrary Partners:

Safety knowledge contributed by: